Terminal Aerodrome Forecast
Issued by NWS

Home | Current Version | Previous Version | Text Only | Print | Product List | Glossary On
Versions: 1 2 3 4 5 6 7 8 9 10 11 12 13 14 15 16 17 18 19 20 21 22 23 24 25 26 27 28 29 30 31 32 33 34
000
FTUS44 KLZK 250536
TAFADF
TAF
KADF 250536Z 2506/2606 17008G15KT P6SM VCSH SCT030 OVC050
      WS020/22040KT
     FM250900 13010G18KT P6SM VCSH SCT030 OVC050 WS020/22040KT
      TEMPO 2509/2513 5SM BR OVC025
     FM251400 22012G18KT P6SM VCSH BKN050
     FM251800 25009G18KT P6SM OVC050=

USA.gov is the U.S. government's official web portal to all federal, state and local government web resources and services.